sensor_id;sensor_type;location;lat;lon;timestamp;P1;durP1;ratioP1;P2;durP2;ratioP2
21091;SDS011;10704;42.678;23.288;2023-06-22T00:01:28;12.75;;;9.57;;
21091;SDS011;10704;42.678;23.288;2023-06-22T00:03:54;14.15;;;9.20;;
21091;SDS011;10704;42.678;23.288;2023-06-22T00:06:20;14.57;;;10.40;;
21091;SDS011;10704;42.678;23.288;2023-06-22T00:08:46;12.20;;;9.80;;
21091;SDS011;10704;42.678;23.288;2023-06-22T00:11:12;15.55;;;10.40;;
21091;SDS011;10704;42.678;23.288;2023-06-22T00:13:38;14.38;;;9.98;;
21091;SDS011;10704;42.678;23.288;2023-06-22T00:16:04;15.45;;;9.93;;
21091;SDS011;10704;42.678;23.288;2023-06-22T00:18:30;14.45;;;10.35;;
21091;SDS011;10704;42.678;23.288;2023-06-22T00:20:57;13.88;;;10.02;;
21091;SDS011;10704;42.678;23.288;2023-06-22T00:23:24;13.52;;;9.32;;
21091;SDS011;10704;42.678;23.288;2023-06-22T00:25:50;12.25;;;9.70;;
21091;SDS011;10704;42.678;23.288;2023-06-22T00:28:17;14.63;;;10.23;;
21091;SDS011;10704;42.678;23.288;2023-06-22T00:30:42;13.68;;;9.70;;
21091;SDS011;10704;42.678;23.288;2023-06-22T00:33:08;13.60;;;9.10;;
21091;SDS011;10704;42.678;23.288;2023-06-22T00:35:34;13.50;;;9.68;;
21091;SDS011;10704;42.678;23.288;2023-06-22T00:38:00;14.43;;;9.90;;
21091;SDS011;10704;42.678;23.288;2023-06-22T00:40:31;13.50;;;9.75;;
21091;SDS011;10704;42.678;23.288;2023-06-22T00:42:57;12.73;;;10.40;;
21091;SDS011;10704;42.678;23.288;2023-06-22T00:45:24;13.35;;;9.88;;
21091;SDS011;10704;42.678;23.288;2023-06-22T00:47:50;13.63;;;10.30;;
21091;SDS011;10704;42.678;23.288;2023-06-22T00:50:21;15.35;;;9.50;;
21091;SDS011;10704;42.678;23.288;2023-06-22T00:52:52;16.63;;;10.55;;
21091;SDS011;10704;42.678;23.288;2023-06-22T00:55:22;13.05;;;9.82;;
21091;SDS011;10704;42.678;23.288;2023-06-22T00:57:48;12.25;;;9.27;;
21091;SDS011;10704;42.678;23.288;2023-06-22T01:00:15;15.10;;;9.88;;
21091;SDS011;10704;42.678;23.288;2023-06-22T01:02:45;15.00;;;9.45;;
21091;SDS011;10704;42.678;23.288;2023-06-22T01:05:14;13.20;;;8.45;;
21091;SDS011;10704;42.678;23.288;2023-06-22T01:07:46;13.55;;;9.38;;
21091;SDS011;10704;42.678;23.288;2023-06-22T01:10:25;16.60;;;9.70;;
21091;SDS011;10704;42.678;23.288;2023-06-22T01:12:53;12.60;;;9.10;;
21091;SDS011;10704;42.678;23.288;2023-06-22T01:15:31;13.63;;;9.05;;
21091;SDS011;10704;42.678;23.288;2023-06-22T01:18:18;12.48;;;9.85;;
21091;SDS011;10704;42.678;23.288;2023-06-22T01:20:44;12.13;;;9.38;;
21091;SDS011;10704;42.678;23.288;2023-06-22T01:23:15;11.65;;;8.98;;
21091;SDS011;10704;42.678;23.288;2023-06-22T01:29:05;13.23;;;8.98;;
21091;SDS011;10704;42.678;23.288;2023-06-22T01:31:33;13.45;;;9.93;;
21091;SDS011;10704;42.678;23.288;2023-06-22T01:34:03;15.10;;;9.93;;
21091;SDS011;10704;42.678;23.288;2023-06-22T01:36:31;14.65;;;9.05;;
21091;SDS011;10704;42.678;23.288;2023-06-22T01:38:58;11.50;;;8.18;;
21091;SDS011;10704;42.678;23.288;2023-06-22T01:41:25;11.68;;;9.70;;
21091;SDS011;10704;42.678;23.288;2023-06-22T01:43:52;11.18;;;8.48;;
21091;SDS011;10704;42.678;23.288;2023-06-22T01:46:19;14.38;;;9.15;;
21091;SDS011;10704;42.678;23.288;2023-06-22T01:48:47;15.15;;;10.35;;
21091;SDS011;10704;42.678;23.288;2023-06-22T01:51:13;13.25;;;9.25;;
21091;SDS011;10704;42.678;23.288;2023-06-22T01:53:39;13.88;;;10.02;;
21091;SDS011;10704;42.678;23.288;2023-06-22T01:56:05;14.75;;;10.60;;
21091;SDS011;10704;42.678;23.288;2023-06-22T01:58:33;16.45;;;9.50;;
21091;SDS011;10704;42.678;23.288;2023-06-22T02:01:09;18.50;;;9.65;;
21091;SDS011;10704;42.678;23.288;2023-06-22T02:03:50;15.60;;;10.18;;
21091;SDS011;10704;42.678;23.288;2023-06-22T02:06:27;14.45;;;9.02;;
21091;SDS011;10704;42.678;23.288;2023-06-22T02:09:01;11.20;;;8.63;;
21091;SDS011;10704;42.678;23.288;2023-06-22T02:11:30;12.55;;;9.35;;
21091;SDS011;10704;42.678;23.288;2023-06-22T02:13:58;15.30;;;9.90;;
21091;SDS011;10704;42.678;23.288;2023-06-22T02:16:25;14.18;;;9.77;;
21091;SDS011;10704;42.678;23.288;2023-06-22T02:18:55;16.77;;;9.90;;
21091;SDS011;10704;42.678;23.288;2023-06-22T02:21:22;14.60;;;9.55;;
21091;SDS011;10704;42.678;23.288;2023-06-22T02:23:48;15.48;;;9.05;;
21091;SDS011;10704;42.678;23.288;2023-06-22T02:26:16;11.65;;;8.73;;
21091;SDS011;10704;42.678;23.288;2023-06-22T02:28:43;10.35;;;8.25;;
21091;SDS011;10704;42.678;23.288;2023-06-22T02:31:09;12.75;;;9.00;;
21091;SDS011;10704;42.678;23.288;2023-06-22T02:33:35;12.57;;;8.68;;
21091;SDS011;10704;42.678;23.288;2023-06-22T02:36:01;11.75;;;8.50;;
21091;SDS011;10704;42.678;23.288;2023-06-22T02:38:31;13.02;;;9.40;;
21091;SDS011;10704;42.678;23.288;2023-06-22T02:40:59;15.43;;;9.50;;
21091;SDS011;10704;42.678;23.288;2023-06-22T02:43:25;12.70;;;9.77;;
21091;SDS011;10704;42.678;23.288;2023-06-22T02:45:51;22.65;;;10.80;;
21091;SDS011;10704;42.678;23.288;2023-06-22T02:48:17;14.25;;;11.57;;
21091;SDS011;10704;42.678;23.288;2023-06-22T02:50:43;19.23;;;11.55;;
21091;SDS011;10704;42.678;23.288;2023-06-22T02:53:09;16.50;;;11.70;;
21091;SDS011;10704;42.678;23.288;2023-06-22T02:55:39;24.55;;;11.43;;
21091;SDS011;10704;42.678;23.288;2023-06-22T02:58:05;15.25;;;10.95;;
21091;SDS011;10704;42.678;23.288;2023-06-22T03:00:33;15.40;;;11.02;;
21091;SDS011;10704;42.678;23.288;2023-06-22T03:03:00;16.60;;;11.15;;
21091;SDS011;10704;42.678;23.288;2023-06-22T03:05:26;16.08;;;11.63;;
21091;SDS011;10704;42.678;23.288;2023-06-22T03:07:52;21.02;;;12.20;;
21091;SDS011;10704;42.678;23.288;2023-06-22T03:10:19;18.77;;;12.52;;
21091;SDS011;10704;42.678;23.288;2023-06-22T03:12:46;17.92;;;12.02;;
21091;SDS011;10704;42.678;23.288;2023-06-22T03:15:12;16.98;;;12.77;;
21091;SDS011;10704;42.678;23.288;2023-06-22T03:17:38;17.80;;;12.98;;
21091;SDS011;10704;42.678;23.288;2023-06-22T03:20:06;20.42;;;13.77;;
21091;SDS011;10704;42.678;23.288;2023-06-22T03:22:40;17.45;;;13.15;;
21091;SDS011;10704;42.678;23.288;2023-06-22T03:25:08;18.15;;;13.88;;
21091;SDS011;10704;42.678;23.288;2023-06-22T03:27:43;21.60;;;14.98;;
21091;SDS011;10704;42.678;23.288;2023-06-22T03:30:10;29.83;;;20.38;;
21091;SDS011;10704;42.678;23.288;2023-06-22T03:32:37;26.42;;;16.35;;
21091;SDS011;10704;42.678;23.288;2023-06-22T03:35:04;21.27;;;14.40;;
21091;SDS011;10704;42.678;23.288;2023-06-22T03:37:33;18.25;;;13.05;;
21091;SDS011;10704;42.678;23.288;2023-06-22T03:39:59;19.88;;;14.77;;
21091;SDS011;10704;42.678;23.288;2023-06-22T03:42:26;20.55;;;13.40;;
21091;SDS011;10704;42.678;23.288;2023-06-22T03:44:52;20.55;;;14.73;;
21091;SDS011;10704;42.678;23.288;2023-06-22T03:47:18;20.63;;;14.38;;
21091;SDS011;10704;42.678;23.288;2023-06-22T03:49:44;19.95;;;13.93;;
21091;SDS011;10704;42.678;23.288;2023-06-22T03:52:10;23.45;;;14.73;;
21091;SDS011;10704;42.678;23.288;2023-06-22T03:54:36;20.13;;;12.98;;
21091;SDS011;10704;42.678;23.288;2023-06-22T03:57:04;17.58;;;13.65;;
21091;SDS011;10704;42.678;23.288;2023-06-22T03:59:30;16.83;;;12.90;;
21091;SDS011;10704;42.678;23.288;2023-06-22T04:01:57;23.65;;;14.35;;
21091;SDS011;10704;42.678;23.288;2023-06-22T04:04:23;18.45;;;13.60;;
21091;SDS011;10704;42.678;23.288;2023-06-22T04:06:49;22.55;;;14.43;;
21091;SDS011;10704;42.678;23.288;2023-06-22T04:09:15;20.55;;;14.05;;
21091;SDS011;10704;42.678;23.288;2023-06-22T04:11:41;20.52;;;13.57;;
21091;SDS011;10704;42.678;23.288;2023-06-22T04:14:07;22.77;;;15.02;;
21091;SDS011;10704;42.678;23.288;2023-06-22T04:16:33;22.02;;;14.05;;
21091;SDS011;10704;42.678;23.288;2023-06-22T04:18:59;19.00;;;14.55;;
21091;SDS011;10704;42.678;23.288;2023-06-22T04:21:24;20.27;;;13.45;;
21091;SDS011;10704;42.678;23.288;2023-06-22T04:23:50;19.95;;;14.07;;
21091;SDS011;10704;42.678;23.288;2023-06-22T04:26:16;23.98;;;14.35;;
21091;SDS011;10704;42.678;23.288;2023-06-22T04:28:42;22.05;;;14.15;;
21091;SDS011;10704;42.678;23.288;2023-06-22T04:31:08;21.10;;;13.98;;
21091;SDS011;10704;42.678;23.288;2023-06-22T04:33:34;21.38;;;13.63;;
21091;SDS011;10704;42.678;23.288;2023-06-22T04:36:00;20.90;;;12.55;;
21091;SDS011;10704;42.678;23.288;2023-06-22T04:38:29;19.48;;;14.13;;
21091;SDS011;10704;42.678;23.288;2023-06-22T04:40:58;20.67;;;14.05;;
21091;SDS011;10704;42.678;23.288;2023-06-22T04:43:27;20.80;;;14.70;;
21091;SDS011;10704;42.678;23.288;2023-06-22T04:45:56;19.23;;;13.73;;
21091;SDS011;10704;42.678;23.288;2023-06-22T04:48:31;19.42;;;13.68;;
21091;SDS011;10704;42.678;23.288;2023-06-22T04:50:58;20.40;;;13.50;;
21091;SDS011;10704;42.678;23.288;2023-06-22T04:53:30;17.20;;;13.80;;
21091;SDS011;10704;42.678;23.288;2023-06-22T04:55:56;20.80;;;13.25;;
21091;SDS011;10704;42.678;23.288;2023-06-22T04:58:22;16.80;;;14.15;;
21091;SDS011;10704;42.678;23.288;2023-06-22T05:00:52;18.05;;;12.98;;
21091;SDS011;10704;42.678;23.288;2023-06-22T05:03:18;21.17;;;12.27;;
21091;SDS011;10704;42.678;23.288;2023-06-22T05:05:44;17.05;;;11.73;;
21091;SDS011;10704;42.678;23.288;2023-06-22T05:08:10;19.52;;;12.15;;
21091;SDS011;10704;42.678;23.288;2023-06-22T05:10:35;18.05;;;13.32;;
21091;SDS011;10704;42.678;23.288;2023-06-22T05:13:01;20.00;;;12.55;;
21091;SDS011;10704;42.678;23.288;2023-06-22T05:15:27;21.02;;;12.98;;
21091;SDS011;10704;42.678;23.288;2023-06-22T05:17:55;16.63;;;13.65;;
21091;SDS011;10704;42.678;23.288;2023-06-22T05:20:21;24.40;;;14.40;;
21091;SDS011;10704;42.678;23.288;2023-06-22T05:22:47;19.98;;;13.85;;
21091;SDS011;10704;42.678;23.288;2023-06-22T05:25:13;23.67;;;15.05;;
21091;SDS011;10704;42.678;23.288;2023-06-22T05:27:39;19.73;;;14.20;;
21091;SDS011;10704;42.678;23.288;2023-06-22T05:30:06;20.67;;;13.73;;
21091;SDS011;10704;42.678;23.288;2023-06-22T05:32:32;16.95;;;13.38;;
21091;SDS011;10704;42.678;23.288;2023-06-22T05:34:59;21.45;;;13.25;;
21091;SDS011;10704;42.678;23.288;2023-06-22T05:37:25;18.38;;;13.10;;
21091;SDS011;10704;42.678;23.288;2023-06-22T05:39:51;17.67;;;13.40;;
21091;SDS011;10704;42.678;23.288;2023-06-22T05:42:19;20.25;;;14.40;;
21091;SDS011;10704;42.678;23.288;2023-06-22T05:44:45;23.15;;;13.88;;
21091;SDS011;10704;42.678;23.288;2023-06-22T05:47:12;17.38;;;14.00;;
21091;SDS011;10704;42.678;23.288;2023-06-22T05:49:38;22.20;;;14.65;;
21091;SDS011;10704;42.678;23.288;2023-06-22T05:52:04;21.73;;;14.65;;
21091;SDS011;10704;42.678;23.288;2023-06-22T05:54:30;19.27;;;15.07;;
21091;SDS011;10704;42.678;23.288;2023-06-22T05:56:56;20.77;;;15.10;;
21091;SDS011;10704;42.678;23.288;2023-06-22T05:59:22;21.08;;;14.15;;
21091;SDS011;10704;42.678;23.288;2023-06-22T06:01:48;18.15;;;14.10;;
21091;SDS011;10704;42.678;23.288;2023-06-22T06:04:18;20.02;;;14.55;;
21091;SDS011;10704;42.678;23.288;2023-06-22T06:06:44;21.27;;;14.73;;
21091;SDS011;10704;42.678;23.288;2023-06-22T06:09:12;21.60;;;14.63;;
21091;SDS011;10704;42.678;23.288;2023-06-22T06:11:39;19.17;;;15.10;;
21091;SDS011;10704;42.678;23.288;2023-06-22T06:14:05;20.45;;;14.77;;
21091;SDS011;10704;42.678;23.288;2023-06-22T06:16:31;20.27;;;15.55;;
21091;SDS011;10704;42.678;23.288;2023-06-22T06:18:57;19.67;;;14.27;;
21091;SDS011;10704;42.678;23.288;2023-06-22T06:21:23;17.95;;;15.07;;
21091;SDS011;10704;42.678;23.288;2023-06-22T06:23:49;17.33;;;14.15;;
21091;SDS011;10704;42.678;23.288;2023-06-22T06:26:15;20.00;;;14.02;;
21091;SDS011;10704;42.678;23.288;2023-06-22T06:28:42;17.80;;;14.15;;
21091;SDS011;10704;42.678;23.288;2023-06-22T06:31:08;16.48;;;12.38;;
21091;SDS011;10704;42.678;23.288;2023-06-22T06:33:35;20.50;;;14.68;;
21091;SDS011;10704;42.678;23.288;2023-06-22T06:36:01;18.33;;;13.20;;
21091;SDS011;10704;42.678;23.288;2023-06-22T06:38:29;17.75;;;13.25;;
21091;SDS011;10704;42.678;23.288;2023-06-22T06:40:58;19.42;;;14.10;;
21091;SDS011;10704;42.678;23.288;2023-06-22T06:43:24;19.10;;;14.43;;
21091;SDS011;10704;42.678;23.288;2023-06-22T06:45:51;15.95;;;12.88;;
21091;SDS011;10704;42.678;23.288;2023-06-22T06:48:17;18.77;;;13.60;;
21091;SDS011;10704;42.678;23.288;2023-06-22T06:50:42;19.27;;;13.88;;
21091;SDS011;10704;42.678;23.288;2023-06-22T06:53:09;17.60;;;13.68;;
21091;SDS011;10704;42.678;23.288;2023-06-22T06:55:35;19.02;;;12.48;;
21091;SDS011;10704;42.678;23.288;2023-06-22T06:58:01;21.92;;;13.35;;
21091;SDS011;10704;42.678;23.288;2023-06-22T07:00:29;21.42;;;13.27;;
21091;SDS011;10704;42.678;23.288;2023-06-22T07:02:55;14.93;;;11.98;;
21091;SDS011;10704;42.678;23.288;2023-06-22T07:05:21;15.85;;;11.80;;
21091;SDS011;10704;42.678;23.288;2023-06-22T07:07:46;22.35;;;13.88;;
21091;SDS011;10704;42.678;23.288;2023-06-22T07:10:12;18.75;;;13.05;;
21091;SDS011;10704;42.678;23.288;2023-06-22T07:12:38;19.73;;;14.30;;
21091;SDS011;10704;42.678;23.288;2023-06-22T07:15:04;16.95;;;12.27;;
21091;SDS011;10704;42.678;23.288;2023-06-22T07:17:36;16.10;;;12.00;;
21091;SDS011;10704;42.678;23.288;2023-06-22T07:20:03;18.70;;;12.98;;
21091;SDS011;10704;42.678;23.288;2023-06-22T07:22:43;15.40;;;11.80;;
21091;SDS011;10704;42.678;23.288;2023-06-22T07:25:10;21.60;;;12.90;;
21091;SDS011;10704;42.678;23.288;2023-06-22T07:27:40;17.33;;;12.80;;
21091;SDS011;10704;42.678;23.288;2023-06-22T07:30:27;17.92;;;13.15;;
21091;SDS011;10704;42.678;23.288;2023-06-22T07:32:53;19.08;;;12.15;;
21091;SDS011;10704;42.678;23.288;2023-06-22T07:35:19;16.38;;;10.90;;
21091;SDS011;10704;42.678;23.288;2023-06-22T07:37:45;17.35;;;13.13;;
21091;SDS011;10704;42.678;23.288;2023-06-22T07:40:11;15.77;;;12.18;;
21091;SDS011;10704;42.678;23.288;2023-06-22T07:42:37;17.83;;;13.32;;
21091;SDS011;10704;42.678;23.288;2023-06-22T07:45:03;18.33;;;13.55;;
21091;SDS011;10704;42.678;23.288;2023-06-22T07:47:31;15.18;;;11.75;;
21091;SDS011;10704;42.678;23.288;2023-06-22T07:50:00;18.90;;;12.32;;
21091;SDS011;10704;42.678;23.288;2023-06-22T07:52:27;19.98;;;11.80;;
21091;SDS011;10704;42.678;23.288;2023-06-22T07:54:54;22.15;;;12.38;;
21091;SDS011;10704;42.678;23.288;2023-06-22T07:57:20;18.92;;;12.77;;
21091;SDS011;10704;42.678;23.288;2023-06-22T07:59:46;16.63;;;12.77;;
21091;SDS011;10704;42.678;23.288;2023-06-22T08:02:12;16.35;;;12.30;;
21091;SDS011;10704;42.678;23.288;2023-06-22T08:04:38;17.13;;;10.93;;
21091;SDS011;10704;42.678;23.288;2023-06-22T08:07:04;18.83;;;12.52;;
21091;SDS011;10704;42.678;23.288;2023-06-22T08:09:31;15.68;;;11.77;;
21091;SDS011;10704;42.678;23.288;2023-06-22T08:11:58;17.00;;;12.32;;
21091;SDS011;10704;42.678;23.288;2023-06-22T08:14:25;14.38;;;11.80;;
21091;SDS011;10704;42.678;23.288;2023-06-22T08:16:51;15.05;;;11.90;;
21091;SDS011;10704;42.678;23.288;2023-06-22T08:19:17;15.02;;;12.57;;
21091;SDS011;10704;42.678;23.288;2023-06-22T08:21:43;15.10;;;13.10;;
21091;SDS011;10704;42.678;23.288;2023-06-22T08:24:09;13.80;;;12.32;;
21091;SDS011;10704;42.678;23.288;2023-06-22T08:26:35;15.80;;;11.85;;
21091;SDS011;10704;42.678;23.288;2023-06-22T08:29:03;14.02;;;12.30;;
21091;SDS011;10704;42.678;23.288;2023-06-22T08:31:29;13.50;;;11.65;;
21091;SDS011;10704;42.678;23.288;2023-06-22T08:33:56;15.90;;;12.13;;
21091;SDS011;10704;42.678;23.288;2023-06-22T08:36:21;17.90;;;12.10;;
21091;SDS011;10704;42.678;23.288;2023-06-22T08:38:47;14.15;;;12.63;;
21091;SDS011;10704;42.678;23.288;2023-06-22T08:41:16;14.95;;;11.63;;
21091;SDS011;10704;42.678;23.288;2023-06-22T08:43:44;14.15;;;11.02;;
21091;SDS011;10704;42.678;23.288;2023-06-22T08:46:10;12.38;;;10.38;;
21091;SDS011;10704;42.678;23.288;2023-06-22T08:48:36;14.32;;;10.55;;
21091;SDS011;10704;42.678;23.288;2023-06-22T08:51:02;12.02;;;10.82;;
21091;SDS011;10704;42.678;23.288;2023-06-22T08:53:28;12.88;;;11.27;;
21091;SDS011;10704;42.678;23.288;2023-06-22T08:55:54;15.88;;;10.45;;
21091;SDS011;10704;42.678;23.288;2023-06-22T08:58:20;14.18;;;10.38;;
21091;SDS011;10704;42.678;23.288;2023-06-22T09:00:46;12.55;;;10.20;;
21091;SDS011;10704;42.678;23.288;2023-06-22T09:03:13;13.60;;;10.07;;
21091;SDS011;10704;42.678;23.288;2023-06-22T09:05:40;13.50;;;10.00;;
21091;SDS011;10704;42.678;23.288;2023-06-22T09:08:06;15.38;;;11.20;;
21091;SDS011;10704;42.678;23.288;2023-06-22T09:10:31;11.20;;;9.95;;
21091;SDS011;10704;42.678;23.288;2023-06-22T09:12:57;10.00;;;9.00;;
21091;SDS011;10704;42.678;23.288;2023-06-22T09:15:23;12.18;;;9.68;;
21091;SDS011;10704;42.678;23.288;2023-06-22T09:17:49;10.73;;;9.48;;
21091;SDS011;10704;42.678;23.288;2023-06-22T09:20:15;11.18;;;9.00;;
21091;SDS011;10704;42.678;23.288;2023-06-22T09:22:41;11.85;;;8.75;;
21091;SDS011;10704;42.678;23.288;2023-06-22T09:25:07;9.77;;;8.40;;
21091;SDS011;10704;42.678;23.288;2023-06-22T09:27:33;10.88;;;8.93;;
21091;SDS011;10704;42.678;23.288;2023-06-22T09:29:59;11.13;;;8.80;;
21091;SDS011;10704;42.678;23.288;2023-06-22T09:32:25;10.23;;;9.13;;
21091;SDS011;10704;42.678;23.288;2023-06-22T09:34:51;10.63;;;9.02;;
21091;SDS011;10704;42.678;23.288;2023-06-22T09:37:18;9.27;;;8.25;;
21091;SDS011;10704;42.678;23.288;2023-06-22T09:39:44;9.85;;;8.82;;
21091;SDS011;10704;42.678;23.288;2023-06-22T09:42:09;12.20;;;9.93;;
21091;SDS011;10704;42.678;23.288;2023-06-22T09:44:35;12.23;;;9.73;;
21091;SDS011;10704;42.678;23.288;2023-06-22T09:47:01;9.02;;;8.07;;
21091;SDS011;10704;42.678;23.288;2023-06-22T09:49:27;10.63;;;9.32;;
21091;SDS011;10704;42.678;23.288;2023-06-22T09:51:53;13.77;;;9.48;;
21091;SDS011;10704;42.678;23.288;2023-06-22T09:54:19;10.90;;;9.80;;
21091;SDS011;10704;42.678;23.288;2023-06-22T09:56:45;11.35;;;10.15;;
21091;SDS011;10704;42.678;23.288;2023-06-22T09:59:11;10.82;;;9.65;;
21091;SDS011;10704;42.678;23.288;2023-06-22T10:01:37;13.27;;;10.18;;
21091;SDS011;10704;42.678;23.288;2023-06-22T10:04:03;12.95;;;9.90;;
21091;SDS011;10704;42.678;23.288;2023-06-22T10:06:29;16.10;;;10.52;;
21091;SDS011;10704;42.678;23.288;2023-06-22T10:08:55;12.00;;;10.73;;
21091;SDS011;10704;42.678;23.288;2023-06-22T10:11:21;11.57;;;10.43;;
21091;SDS011;10704;42.678;23.288;2023-06-22T10:13:52;12.55;;;10.27;;
21091;SDS011;10704;42.678;23.288;2023-06-22T10:16:18;12.32;;;10.45;;
21091;SDS011;10704;42.678;23.288;2023-06-22T10:18:43;10.77;;;9.70;;
21091;SDS011;10704;42.678;23.288;2023-06-22T10:21:09;14.32;;;10.30;;
21091;SDS011;10704;42.678;23.288;2023-06-22T10:23:35;12.20;;;10.00;;
21091;SDS011;10704;42.678;23.288;2023-06-22T10:26:01;11.25;;;10.15;;
21091;SDS011;10704;42.678;23.288;2023-06-22T10:28:27;11.52;;;10.07;;
21091;SDS011;10704;42.678;23.288;2023-06-22T10:30:53;11.88;;;10.48;;
21091;SDS011;10704;42.678;23.288;2023-06-22T10:33:21;12.48;;;10.10;;
21091;SDS011;10704;42.678;23.288;2023-06-22T10:35:47;11.77;;;10.65;;
21091;SDS011;10704;42.678;23.288;2023-06-22T10:38:14;11.32;;;10.10;;
21091;SDS011;10704;42.678;23.288;2023-06-22T10:40:40;14.93;;;10.05;;
21091;SDS011;10704;42.678;23.288;2023-06-22T10:43:05;14.80;;;13.02;;
21091;SDS011;10704;42.678;23.288;2023-06-22T10:45:31;16.50;;;10.48;;
21091;SDS011;10704;42.678;23.288;2023-06-22T10:47:57;14.70;;;11.70;;
21091;SDS011;10704;42.678;23.288;2023-06-22T10:50:24;11.45;;;10.30;;
21091;SDS011;10704;42.678;23.288;2023-06-22T10:52:50;12.40;;;10.55;;
21091;SDS011;10704;42.678;23.288;2023-06-22T10:55:16;14.30;;;10.52;;
21091;SDS011;10704;42.678;23.288;2023-06-22T10:57:42;14.85;;;10.82;;
21091;SDS011;10704;42.678;23.288;2023-06-22T11:00:09;11.88;;;10.30;;
21091;SDS011;10704;42.678;23.288;2023-06-22T11:02:37;13.68;;;11.20;;
21091;SDS011;10704;42.678;23.288;2023-06-22T11:05:03;12.48;;;11.23;;
21091;SDS011;10704;42.678;23.288;2023-06-22T11:07:29;14.52;;;10.95;;
21091;SDS011;10704;42.678;23.288;2023-06-22T11:09:55;14.90;;;10.82;;
21091;SDS011;10704;42.678;23.288;2023-06-22T11:12:21;14.35;;;11.68;;
21091;SDS011;10704;42.678;23.288;2023-06-22T11:14:47;12.82;;;10.73;;
21091;SDS011;10704;42.678;23.288;2023-06-22T11:17:12;12.52;;;10.85;;
21091;SDS011;10704;42.678;23.288;2023-06-22T11:19:38;13.48;;;11.40;;
21091;SDS011;10704;42.678;23.288;2023-06-22T11:22:04;13.10;;;11.80;;
21091;SDS011;10704;42.678;23.288;2023-06-22T11:24:30;16.05;;;11.73;;
21091;SDS011;10704;42.678;23.288;2023-06-22T11:26:56;18.00;;;12.63;;
21091;SDS011;10704;42.678;23.288;2023-06-22T11:29:22;15.20;;;12.23;;
21091;SDS011;10704;42.678;23.288;2023-06-22T11:31:48;13.63;;;12.23;;
21091;SDS011;10704;42.678;23.288;2023-06-22T11:34:14;16.15;;;11.75;;
21091;SDS011;10704;42.678;23.288;2023-06-22T11:36:40;14.90;;;11.75;;
21091;SDS011;10704;42.678;23.288;2023-06-22T11:39:08;13.38;;;11.77;;
21091;SDS011;10704;42.678;23.288;2023-06-22T11:41:34;16.42;;;13.23;;
21091;SDS011;10704;42.678;23.288;2023-06-22T11:44:00;12.68;;;11.38;;
21091;SDS011;10704;42.678;23.288;2023-06-22T11:46:26;15.35;;;12.23;;
21091;SDS011;10704;42.678;23.288;2023-06-22T11:48:52;15.98;;;11.55;;
21091;SDS011;10704;42.678;23.288;2023-06-22T11:51:18;19.33;;;11.57;;
21091;SDS011;10704;42.678;23.288;2023-06-22T11:53:44;12.90;;;11.13;;
21091;SDS011;10704;42.678;23.288;2023-06-22T11:56:10;14.05;;;11.45;;
21091;SDS011;10704;42.678;23.288;2023-06-22T11:58:35;17.17;;;13.70;;
21091;SDS011;10704;42.678;23.288;2023-06-22T12:01:01;20.73;;;15.43;;
21091;SDS011;10704;42.678;23.288;2023-06-22T12:03:27;16.75;;;13.20;;
21091;SDS011;10704;42.678;23.288;2023-06-22T12:05:54;17.58;;;13.27;;
21091;SDS011;10704;42.678;23.288;2023-06-22T12:08:19;21.40;;;14.55;;
21091;SDS011;10704;42.678;23.288;2023-06-22T12:10:46;17.25;;;12.32;;
21091;SDS011;10704;42.678;23.288;2023-06-22T12:13:12;18.30;;;13.48;;
21091;SDS011;10704;42.678;23.288;2023-06-22T12:15:38;19.13;;;14.30;;
21091;SDS011;10704;42.678;23.288;2023-06-22T12:18:03;20.33;;;14.30;;
21091;SDS011;10704;42.678;23.288;2023-06-22T12:20:29;20.65;;;15.02;;
21091;SDS011;10704;42.678;23.288;2023-06-22T12:22:55;17.50;;;13.07;;
21091;SDS011;10704;42.678;23.288;2023-06-22T12:25:23;25.88;;;16.48;;
21091;SDS011;10704;42.678;23.288;2023-06-22T12:27:49;18.20;;;13.95;;
21091;SDS011;10704;42.678;23.288;2023-06-22T12:30:15;17.08;;;13.27;;
21091;SDS011;10704;42.678;23.288;2023-06-22T12:32:41;17.52;;;13.65;;
21091;SDS011;10704;42.678;23.288;2023-06-22T12:35:07;18.23;;;12.88;;
21091;SDS011;10704;42.678;23.288;2023-06-22T12:37:39;20.33;;;12.13;;
21091;SDS011;10704;42.678;23.288;2023-06-22T12:40:06;17.58;;;11.13;;
21091;SDS011;10704;42.678;23.288;2023-06-22T12:42:33;19.67;;;11.23;;
21091;SDS011;10704;42.678;23.288;2023-06-22T12:44:58;17.45;;;11.30;;
21091;SDS011;10704;42.678;23.288;2023-06-22T12:47:25;17.80;;;10.70;;
21091;SDS011;10704;42.678;23.288;2023-06-22T12:49:52;22.70;;;12.60;;
21091;SDS011;10704;42.678;23.288;2023-06-22T12:52:18;16.02;;;10.93;;
21091;SDS011;10704;42.678;23.288;2023-06-22T12:54:44;14.30;;;10.27;;
21091;SDS011;10704;42.678;23.288;2023-06-22T12:57:10;15.30;;;9.23;;
21091;SDS011;10704;42.678;23.288;2023-06-22T12:59:35;14.93;;;9.60;;
21091;SDS011;10704;42.678;23.288;2023-06-22T13:02:01;16.85;;;9.18;;
21091;SDS011;10704;42.678;23.288;2023-06-22T13:04:27;13.20;;;9.20;;
21091;SDS011;10704;42.678;23.288;2023-06-22T13:06:53;11.45;;;8.55;;
21091;SDS011;10704;42.678;23.288;2023-06-22T13:09:19;15.20;;;9.23;;
21091;SDS011;10704;42.678;23.288;2023-06-22T13:11:45;14.88;;;9.40;;
21091;SDS011;10704;42.678;23.288;2023-06-22T13:14:11;16.45;;;10.75;;
21091;SDS011;10704;42.678;23.288;2023-06-22T13:16:37;15.13;;;10.63;;
21091;SDS011;10704;42.678;23.288;2023-06-22T13:19:03;11.77;;;8.80;;
21091;SDS011;10704;42.678;23.288;2023-06-22T13:21:29;16.67;;;11.48;;
21091;SDS011;10704;42.678;23.288;2023-06-22T13:23:55;19.75;;;11.15;;
21091;SDS011;10704;42.678;23.288;2023-06-22T13:26:21;16.05;;;10.55;;
21091;SDS011;10704;42.678;23.288;2023-06-22T13:28:47;17.77;;;11.05;;
21091;SDS011;10704;42.678;23.288;2023-06-22T13:31:13;16.73;;;11.52;;
21091;SDS011;10704;42.678;23.288;2023-06-22T13:33:39;16.17;;;11.52;;
21091;SDS011;10704;42.678;23.288;2023-06-22T13:36:06;17.05;;;10.30;;
21091;SDS011;10704;42.678;23.288;2023-06-22T13:38:32;14.88;;;11.18;;
21091;SDS011;10704;42.678;23.288;2023-06-22T13:41:03;18.48;;;12.40;;
21091;SDS011;10704;42.678;23.288;2023-06-22T13:43:29;14.02;;;11.07;;
21091;SDS011;10704;42.678;23.288;2023-06-22T13:45:56;24.25;;;12.07;;
21091;SDS011;10704;42.678;23.288;2023-06-22T13:48:22;15.75;;;12.68;;
21091;SDS011;10704;42.678;23.288;2023-06-22T13:50:51;21.80;;;13.93;;
21091;SDS011;10704;42.678;23.288;2023-06-22T13:53:17;21.58;;;12.95;;
21091;SDS011;10704;42.678;23.288;2023-06-22T13:55:43;25.42;;;15.98;;
21091;SDS011;10704;42.678;23.288;2023-06-22T13:58:09;16.02;;;10.73;;
21091;SDS011;10704;42.678;23.288;2023-06-22T14:00:35;17.80;;;11.80;;
21091;SDS011;10704;42.678;23.288;2023-06-22T14:03:01;17.90;;;10.57;;
21091;SDS011;10704;42.678;23.288;2023-06-22T14:05:27;21.05;;;12.20;;
21091;SDS011;10704;42.678;23.288;2023-06-22T14:07:53;23.65;;;13.30;;
21091;SDS011;10704;42.678;23.288;2023-06-22T14:10:19;23.83;;;12.98;;
21091;SDS011;10704;42.678;23.288;2023-06-22T14:12:45;21.63;;;12.95;;